sensor_id;sensor_type;location;lat;lon;timestamp;temperature;humidity
29729;DHT22;20055;51.498;11.960;2022-08-11T00:00:00;20.20;76.20
29729;DHT22;20055;51.498;11.960;2022-08-11T00:02:38;20.10;76.70
29729;DHT22;20055;51.498;11.960;2022-08-11T00:05:16;20.10;77.10
29729;DHT22;20055;51.498;11.960;2022-08-11T00:07:47;20.00;77.40
29729;DHT22;20055;51.498;11.960;2022-08-11T00:10:17;19.90;77.80
29729;DHT22;20055;51.498;11.960;2022-08-11T00:12:51;19.90;78.40
29729;DHT22;20055;51.498;11.960;2022-08-11T00:15:18;19.80;79.40
29729;DHT22;20055;51.498;11.960;2022-08-11T00:17:45;19.70;79.20
29729;DHT22;20055;51.498;11.960;2022-08-11T00:20:13;19.70;80.80
29729;DHT22;20055;51.498;11.960;2022-08-11T00:22:42;19.50;80.60
29729;DHT22;20055;51.498;11.960;2022-08-11T00:25:11;19.50;80.60
29729;DHT22;20055;51.498;11.960;2022-08-11T00:27:39;19.50;80.70
29729;DHT22;20055;51.498;11.960;2022-08-11T00:30:07;19.50;81.20
29729;DHT22;20055;51.498;11.960;2022-08-11T00:32:36;19.40;81.90
29729;DHT22;20055;51.498;11.960;2022-08-11T00:35:06;19.40;82.40
29729;DHT22;20055;51.498;11.960;2022-08-11T00:37:33;19.30;83.00
29729;DHT22;20055;51.498;11.960;2022-08-11T00:40:02;19.20;83.50
29729;DHT22;20055;51.498;11.960;2022-08-11T00:45:28;19.20;84.10
29729;DHT22;20055;51.498;11.960;2022-08-11T00:51:12;19.10;85.50
29729;DHT22;20055;51.498;11.960;2022-08-11T00:54:07;19.10;87.20
29729;DHT22;20055;51.498;11.960;2022-08-11T01:08:22;18.90;86.10
29729;DHT22;20055;51.498;11.960;2022-08-11T01:11:26;18.90;86.20
29729;DHT22;20055;51.498;11.960;2022-08-11T01:17:03;18.90;86.70
29729;DHT22;20055;51.498;11.960;2022-08-11T01:23:07;18.80;86.70
29729;DHT22;20055;51.498;11.960;2022-08-11T01:37:45;18.80;89.40
29729;DHT22;20055;51.498;11.960;2022-08-11T01:40:24;18.80;89.40
29729;DHT22;20055;51.498;11.960;2022-08-11T01:46:20;18.60;90.00
29729;DHT22;20055;51.498;11.960;2022-08-11T01:48:56;18.60;90.40
29729;DHT22;20055;51.498;11.960;2022-08-11T01:59:49;18.40;91.70
29729;DHT22;20055;51.498;11.960;2022-08-11T02:04:58;18.40;92.20
29729;DHT22;20055;51.498;11.960;2022-08-11T02:13:36;18.20;93.00
29729;DHT22;20055;51.498;11.960;2022-08-11T02:19:21;18.00;93.40
29729;DHT22;20055;51.498;11.960;2022-08-11T02:22:32;18.00;93.90
29729;DHT22;20055;51.498;11.960;2022-08-11T02:31:01;17.70;95.40
29729;DHT22;20055;51.498;11.960;2022-08-11T02:33:53;17.60;95.90
29729;DHT22;20055;51.498;11.960;2022-08-11T02:36:35;17.50;96.50
29729;DHT22;20055;51.498;11.960;2022-08-11T02:39:12;17.50;97.30
29729;DHT22;20055;51.498;11.960;2022-08-11T02:41:52;17.40;97.60
29729;DHT22;20055;51.498;11.960;2022-08-11T02:53:50;17.20;99.30
29729;DHT22;20055;51.498;11.960;2022-08-11T03:07:30;16.90;99.90
29729;DHT22;20055;51.498;11.960;2022-08-11T03:10:23;16.80;99.90
29729;DHT22;20055;51.498;11.960;2022-08-11T03:19:20;16.60;99.90
29729;DHT22;20055;51.498;11.960;2022-08-11T03:22:22;16.60;99.90
29729;DHT22;20055;51.498;11.960;2022-08-11T03:36:09;16.40;99.90
29729;DHT22;20055;51.498;11.960;2022-08-11T03:49:56;16.20;99.90
29729;DHT22;20055;51.498;11.960;2022-08-11T03:58:31;16.20;99.90
29729;DHT22;20055;51.498;11.960;2022-08-11T04:18:45;16.30;99.90
29729;DHT22;20055;51.498;11.960;2022-08-11T04:23:55;16.30;99.90
29729;DHT22;20055;51.498;11.960;2022-08-11T04:29:17;16.30;99.90
29729;DHT22;20055;51.498;11.960;2022-08-11T04:35:10;16.60;99.90
29729;DHT22;20055;51.498;11.960;2022-08-11T04:50:26;21.80;94.30
29729;DHT22;20055;51.498;11.960;2022-08-11T04:56:26;23.20;89.10
29729;DHT22;20055;51.498;11.960;2022-08-11T05:11:06;21.80;90.90
29729;DHT22;20055;51.498;11.960;2022-08-11T05:13:45;21.80;90.80
29729;DHT22;20055;51.498;11.960;2022-08-11T05:16:41;21.50;91.30
29729;DHT22;20055;51.498;11.960;2022-08-11T05:19:27;21.00;92.00
29729;DHT22;20055;51.498;11.960;2022-08-11T05:22:13;20.60;92.60
29729;DHT22;20055;51.498;11.960;2022-08-11T05:25:06;20.40;93.20
29729;DHT22;20055;51.498;11.960;2022-08-11T05:28:05;20.20;93.70
29729;DHT22;20055;51.498;11.960;2022-08-11T05:30:59;20.00;94.00
29729;DHT22;20055;51.498;11.960;2022-08-11T05:33:49;19.80;94.90
29729;DHT22;20055;51.498;11.960;2022-08-11T05:36:53;19.50;95.60
29729;DHT22;20055;51.498;11.960;2022-08-11T05:39:25;19.40;96.00
29729;DHT22;20055;51.498;11.960;2022-08-11T05:42:16;19.20;97.00
29729;DHT22;20055;51.498;11.960;2022-08-11T05:45:12;19.00;97.60
29729;DHT22;20055;51.498;11.960;2022-08-11T05:47:58;18.80;98.10
29729;DHT22;20055;51.498;11.960;2022-08-11T05:50:58;18.60;98.90
29729;DHT22;20055;51.498;11.960;2022-08-11T05:53:50;18.60;99.30
29729;DHT22;20055;51.498;11.960;2022-08-11T05:56:42;18.50;99.60
29729;DHT22;20055;51.498;11.960;2022-08-11T05:59:15;18.50;99.90
29729;DHT22;20055;51.498;11.960;2022-08-11T06:01:42;18.50;99.90
29729;DHT22;20055;51.498;11.960;2022-08-11T06:04:18;18.60;99.90
29729;DHT22;20055;51.498;11.960;2022-08-11T06:09:12;18.70;99.90
29729;DHT22;20055;51.498;11.960;2022-08-11T06:11:41;18.70;99.90
29729;DHT22;20055;51.498;11.960;2022-08-11T06:14:08;18.80;99.90
29729;DHT22;20055;51.498;11.960;2022-08-11T06:16:38;18.90;99.90
29729;DHT22;20055;51.498;11.960;2022-08-11T06:19:06;18.90;99.90
29729;DHT22;20055;51.498;11.960;2022-08-11T06:21:34;18.90;99.90
29729;DHT22;20055;51.498;11.960;2022-08-11T06:24:10;19.10;99.80
29729;DHT22;20055;51.498;11.960;2022-08-11T06:26:41;19.20;99.70
29729;DHT22;20055;51.498;11.960;2022-08-11T06:29:12;19.30;99.40
29729;DHT22;20055;51.498;11.960;2022-08-11T06:31:59;19.60;98.80
29729;DHT22;20055;51.498;11.960;2022-08-11T06:39:48;20.00;98.20
29729;DHT22;20055;51.498;11.960;2022-08-11T06:42:31;20.00;97.70
29729;DHT22;20055;51.498;11.960;2022-08-11T06:47:45;20.30;97.30
29729;DHT22;20055;51.498;11.960;2022-08-11T06:50:18;20.60;96.70
29729;DHT22;20055;51.498;11.960;2022-08-11T06:53:06;20.80;96.50
29729;DHT22;20055;51.498;11.960;2022-08-11T06:55:38;21.00;96.30
29729;DHT22;20055;51.498;11.960;2022-08-11T06:58:30;21.00;96.00
29729;DHT22;20055;51.498;11.960;2022-08-11T07:01:21;21.20;95.80
29729;DHT22;20055;51.498;11.960;2022-08-11T07:03:57;21.50;95.50
29729;DHT22;20055;51.498;11.960;2022-08-11T07:06:36;21.70;95.00
29729;DHT22;20055;51.498;11.960;2022-08-11T07:09:26;21.80;94.50
29729;DHT22;20055;51.498;11.960;2022-08-11T07:15:19;21.90;94.30
29729;DHT22;20055;51.498;11.960;2022-08-11T07:18:06;22.10;93.80
29729;DHT22;20055;51.498;11.960;2022-08-11T07:20:53;22.40;93.30
29729;DHT22;20055;51.498;11.960;2022-08-11T07:23:40;22.60;92.90
29729;DHT22;20055;51.498;11.960;2022-08-11T07:26:26;22.60;92.70
29729;DHT22;20055;51.498;11.960;2022-08-11T07:29:12;22.70;92.60
29729;DHT22;20055;51.498;11.960;2022-08-11T07:31:47;22.80;92.50
29729;DHT22;20055;51.498;11.960;2022-08-11T07:34:23;22.70;92.60
29729;DHT22;20055;51.498;11.960;2022-08-11T07:36:54;22.80;92.20
29729;DHT22;20055;51.498;11.960;2022-08-11T07:39:32;22.80;92.30
29729;DHT22;20055;51.498;11.960;2022-08-11T07:41:59;23.00;92.10
29729;DHT22;20055;51.498;11.960;2022-08-11T07:44:30;23.20;91.70
29729;DHT22;20055;51.498;11.960;2022-08-11T07:46:57;23.40;91.30
29729;DHT22;20055;51.498;11.960;2022-08-11T07:49:44;23.50;91.10
29729;DHT22;20055;51.498;11.960;2022-08-11T07:52:32;23.70;90.90
29729;DHT22;20055;51.498;11.960;2022-08-11T07:55:00;23.90;90.50
29729;DHT22;20055;51.498;11.960;2022-08-11T07:57:28;24.10;90.10
29729;DHT22;20055;51.498;11.960;2022-08-11T08:00:14;24.30;89.30
29729;DHT22;20055;51.498;11.960;2022-08-11T08:03:00;23.90;88.10
29729;DHT22;20055;51.498;11.960;2022-08-11T08:05:50;23.90;88.20
29729;DHT22;20055;51.498;11.960;2022-08-11T08:08:36;24.00;87.80
29729;DHT22;20055;51.498;11.960;2022-08-11T08:11:22;24.30;86.70
29729;DHT22;20055;51.498;11.960;2022-08-11T08:14:08;24.60;85.60
29729;DHT22;20055;51.498;11.960;2022-08-11T08:16:54;24.80;84.90
29729;DHT22;20055;51.498;11.960;2022-08-11T08:19:42;25.10;83.50
29729;DHT22;20055;51.498;11.960;2022-08-11T08:22:10;25.00;82.90
29729;DHT22;20055;51.498;11.960;2022-08-11T08:24:38;25.00;82.80
29729;DHT22;20055;51.498;11.960;2022-08-11T08:27:08;25.20;81.80
29729;DHT22;20055;51.498;11.960;2022-08-11T08:29:37;25.30;80.80
29729;DHT22;20055;51.498;11.960;2022-08-11T08:32:22;25.50;80.80
29729;DHT22;20055;51.498;11.960;2022-08-11T08:34:50;25.80;80.40
29729;DHT22;20055;51.498;11.960;2022-08-11T08:37:23;26.20;79.00
29729;DHT22;20055;51.498;11.960;2022-08-11T08:39:50;26.30;78.00
29729;DHT22;20055;51.498;11.960;2022-08-11T08:42:24;26.30;77.70
29729;DHT22;20055;51.498;11.960;2022-08-11T08:45:04;26.30;77.00
29729;DHT22;20055;51.498;11.960;2022-08-11T08:47:35;26.50;75.50
29729;DHT22;20055;51.498;11.960;2022-08-11T08:50:11;26.70;75.40
29729;DHT22;20055;51.498;11.960;2022-08-11T08:52:44;26.80;73.60
29729;DHT22;20055;51.498;11.960;2022-08-11T08:55:16;27.00;70.30
29729;DHT22;20055;51.498;11.960;2022-08-11T08:57:44;27.00;69.30
29729;DHT22;20055;51.498;11.960;2022-08-11T09:00:13;26.90;70.30
29729;DHT22;20055;51.498;11.960;2022-08-11T09:02:43;27.10;69.30
29729;DHT22;20055;51.498;11.960;2022-08-11T09:05:10;27.10;68.80
29729;DHT22;20055;51.498;11.960;2022-08-11T09:07:37;27.10;68.40
29729;DHT22;20055;51.498;11.960;2022-08-11T09:10:05;27.30;67.80
29729;DHT22;20055;51.498;11.960;2022-08-11T09:12:32;27.20;66.70
29729;DHT22;20055;51.498;11.960;2022-08-11T09:15:03;27.30;66.60
29729;DHT22;20055;51.498;11.960;2022-08-11T09:17:44;27.60;66.30
29729;DHT22;20055;51.498;11.960;2022-08-11T09:20:18;27.80;63.70
29729;DHT22;20055;51.498;11.960;2022-08-11T09:22:46;28.00;62.60
29729;DHT22;20055;51.498;11.960;2022-08-11T09:25:32;28.10;61.60
29729;DHT22;20055;51.498;11.960;2022-08-11T09:28:19;28.20;60.70
29729;DHT22;20055;51.498;11.960;2022-08-11T09:30:51;28.10;60.80
29729;DHT22;20055;51.498;11.960;2022-08-11T09:33:19;27.90;60.70
29729;DHT22;20055;51.498;11.960;2022-08-11T09:35:47;28.00;60.60
29729;DHT22;20055;51.498;11.960;2022-08-11T09:38:16;28.10;60.30
29729;DHT22;20055;51.498;11.960;2022-08-11T09:41:03;27.90;60.50
29729;DHT22;20055;51.498;11.960;2022-08-11T09:43:30;27.80;61.00
29729;DHT22;20055;51.498;11.960;2022-08-11T09:46:22;27.90;61.40
29729;DHT22;20055;51.498;11.960;2022-08-11T09:48:49;27.90;60.60
29729;DHT22;20055;51.498;11.960;2022-08-11T09:51:20;28.00;59.80
29729;DHT22;20055;51.498;11.960;2022-08-11T09:53:48;27.80;58.80
29729;DHT22;20055;51.498;11.960;2022-08-11T09:56:17;27.90;58.70
29729;DHT22;20055;51.498;11.960;2022-08-11T09:59:03;28.10;58.50
29729;DHT22;20055;51.498;11.960;2022-08-11T10:01:34;28.50;58.40
29729;DHT22;20055;51.498;11.960;2022-08-11T10:04:12;28.70;57.70
29729;DHT22;20055;51.498;11.960;2022-08-11T10:06:44;28.80;57.50
29729;DHT22;20055;51.498;11.960;2022-08-11T10:09:42;28.90;56.50
29729;DHT22;20055;51.498;11.960;2022-08-11T10:12:19;28.70;56.70
29729;DHT22;20055;51.498;11.960;2022-08-11T10:14:48;28.80;56.60
29729;DHT22;20055;51.498;11.960;2022-08-11T10:17:41;28.70;56.20
29729;DHT22;20055;51.498;11.960;2022-08-11T10:20:33;28.70;56.30
29729;DHT22;20055;51.498;11.960;2022-08-11T10:23:01;28.90;55.50
29729;DHT22;20055;51.498;11.960;2022-08-11T10:25:47;28.70;55.00
29729;DHT22;20055;51.498;11.960;2022-08-11T10:28:34;28.50;55.10
29729;DHT22;20055;51.498;11.960;2022-08-11T10:31:03;28.40;55.80
29729;DHT22;20055;51.498;11.960;2022-08-11T10:33:49;28.60;55.50
29729;DHT22;20055;51.498;11.960;2022-08-11T10:36:35;28.40;55.30
29729;DHT22;20055;51.498;11.960;2022-08-11T10:39:09;28.70;54.90
29729;DHT22;20055;51.498;11.960;2022-08-11T10:41:37;28.40;55.90
29729;DHT22;20055;51.498;11.960;2022-08-11T10:44:23;28.40;55.60
29729;DHT22;20055;51.498;11.960;2022-08-11T10:46:51;28.40;56.30
29729;DHT22;20055;51.498;11.960;2022-08-11T10:49:37;28.60;55.50
29729;DHT22;20055;51.498;11.960;2022-08-11T10:52:03;28.80;55.20
29729;DHT22;20055;51.498;11.960;2022-08-11T10:54:48;29.10;54.70
29729;DHT22;20055;51.498;11.960;2022-08-11T10:57:34;29.50;52.70
29729;DHT22;20055;51.498;11.960;2022-08-11T11:00:19;28.80;54.20
29729;DHT22;20055;51.498;11.960;2022-08-11T11:02:46;28.60;54.30
29729;DHT22;20055;51.498;11.960;2022-08-11T11:05:28;28.70;53.90
29729;DHT22;20055;51.498;11.960;2022-08-11T11:08:08;28.80;53.60
29729;DHT22;20055;51.498;11.960;2022-08-11T11:10:57;28.90;52.90
29729;DHT22;20055;51.498;11.960;2022-08-11T11:13:25;28.70;53.20
29729;DHT22;20055;51.498;11.960;2022-08-11T11:16:11;28.80;53.30
29729;DHT22;20055;51.498;11.960;2022-08-11T11:18:59;29.00;52.90
29729;DHT22;20055;51.498;11.960;2022-08-11T11:21:29;29.40;52.10
29729;DHT22;20055;51.498;11.960;2022-08-11T11:27:13;29.20;51.90
29729;DHT22;20055;51.498;11.960;2022-08-11T11:29:50;29.40;51.80
29729;DHT22;20055;51.498;11.960;2022-08-11T11:37:43;29.40;51.20
29729;DHT22;20055;51.498;11.960;2022-08-11T11:40:15;29.70;50.60
29729;DHT22;20055;51.498;11.960;2022-08-11T11:42:46;29.80;50.20
29729;DHT22;20055;51.498;11.960;2022-08-11T11:45:21;30.00;49.40
29729;DHT22;20055;51.498;11.960;2022-08-11T11:47:48;30.00;49.50
29729;DHT22;20055;51.498;11.960;2022-08-11T11:50:32;29.60;50.60
29729;DHT22;20055;51.498;11.960;2022-08-11T11:53:02;29.10;50.30
29729;DHT22;20055;51.498;11.960;2022-08-11T11:55:30;29.10;50.60
29729;DHT22;20055;51.498;11.960;2022-08-11T11:57:59;29.30;50.70
29729;DHT22;20055;51.498;11.960;2022-08-11T12:00:44;29.40;50.20
29729;DHT22;20055;51.498;11.960;2022-08-11T12:03:31;29.50;50.30
29729;DHT22;20055;51.498;11.960;2022-08-11T12:05:59;29.70;49.70
29729;DHT22;20055;51.498;11.960;2022-08-11T12:08:25;29.70;50.40
29729;DHT22;20055;51.498;11.960;2022-08-11T12:10:54;29.20;50.60
29729;DHT22;20055;51.498;11.960;2022-08-11T12:13:42;29.40;50.30
29729;DHT22;20055;51.498;11.960;2022-08-11T12:16:12;29.50;50.50
29729;DHT22;20055;51.498;11.960;2022-08-11T12:18:40;29.60;50.00
29729;DHT22;20055;51.498;11.960;2022-08-11T12:21:08;29.70;50.60
29729;DHT22;20055;51.498;11.960;2022-08-11T12:23:37;29.80;49.70
29729;DHT22;20055;51.498;11.960;2022-08-11T12:26:23;29.90;49.50
29729;DHT22;20055;51.498;11.960;2022-08-11T12:29:10;30.20;49.20
29729;DHT22;20055;51.498;11.960;2022-08-11T12:31:38;30.40;49.00
29729;DHT22;20055;51.498;11.960;2022-08-11T12:34:08;29.80;49.40
29729;DHT22;20055;51.498;11.960;2022-08-11T12:36:39;29.80;49.50
29729;DHT22;20055;51.498;11.960;2022-08-11T12:39:09;30.10;49.20
29729;DHT22;20055;51.498;11.960;2022-08-11T12:41:37;30.00;48.80
29729;DHT22;20055;51.498;11.960;2022-08-11T12:44:26;29.30;49.80
29729;DHT22;20055;51.498;11.960;2022-08-11T12:47:15;29.10;49.80
29729;DHT22;20055;51.498;11.960;2022-08-11T12:49:48;29.50;49.20
29729;DHT22;20055;51.498;11.960;2022-08-11T12:52:40;29.50;48.90
29729;DHT22;20055;51.498;11.960;2022-08-11T12:55:11;29.70;48.40
29729;DHT22;20055;51.498;11.960;2022-08-11T12:57:41;29.70;48.00
29729;DHT22;20055;51.498;11.960;2022-08-11T13:00:29;29.90;47.80
29729;DHT22;20055;51.498;11.960;2022-08-11T13:03:18;30.10;47.80
29729;DHT22;20055;51.498;11.960;2022-08-11T13:06:03;30.30;47.70
29729;DHT22;20055;51.498;11.960;2022-08-11T13:08:36;29.90;48.40
29729;DHT22;20055;51.498;11.960;2022-08-11T13:11:03;29.80;48.10
29729;DHT22;20055;51.498;11.960;2022-08-11T13:13:49;29.70;48.10
29729;DHT22;20055;51.498;11.960;2022-08-11T13:16:17;29.70;48.00
29729;DHT22;20055;51.498;11.960;2022-08-11T13:18:45;29.50;48.10
29729;DHT22;20055;51.498;11.960;2022-08-11T13:21:12;29.60;47.70
29729;DHT22;20055;51.498;11.960;2022-08-11T13:23:40;29.30;47.20
29729;DHT22;20055;51.498;11.960;2022-08-11T13:26:07;29.30;47.40
29729;DHT22;20055;51.498;11.960;2022-08-11T13:28:35;29.70;47.20
29729;DHT22;20055;51.498;11.960;2022-08-11T13:31:03;29.90;46.80
29729;DHT22;20055;51.498;11.960;2022-08-11T13:33:44;30.20;47.00
29729;DHT22;20055;51.498;11.960;2022-08-11T13:36:11;29.90;47.40
29729;DHT22;20055;51.498;11.960;2022-08-11T13:38:41;29.70;47.90
29729;DHT22;20055;51.498;11.960;2022-08-11T13:41:09;30.00;47.60
29729;DHT22;20055;51.498;11.960;2022-08-11T13:43:55;30.10;47.30
29729;DHT22;20055;51.498;11.960;2022-08-11T13:46:22;29.90;47.40
29729;DHT22;20055;51.498;11.960;2022-08-11T13:48:54;30.00;47.10
29729;DHT22;20055;51.498;11.960;2022-08-11T13:51:23;30.10;46.70
29729;DHT22;20055;51.498;11.960;2022-08-11T13:53:58;30.40;46.60
29729;DHT22;20055;51.498;11.960;2022-08-11T13:56:26;30.20;46.00
29729;DHT22;20055;51.498;11.960;2022-08-11T13:58:54;29.80;46.30
29729;DHT22;20055;51.498;11.960;2022-08-11T14:01:24;29.80;46.60
29729;DHT22;20055;51.498;11.960;2022-08-11T14:03:52;30.00;47.10
29729;DHT22;20055;51.498;11.960;2022-08-11T14:06:19;30.00;46.60
29729;DHT22;20055;51.498;11.960;2022-08-11T14:08:48;29.90;46.40
29729;DHT22;20055;51.498;11.960;2022-08-11T14:11:19;29.80;46.70
29729;DHT22;20055;51.498;11.960;2022-08-11T14:14:06;29.60;47.00
29729;DHT22;20055;51.498;11.960;2022-08-11T14:16:40;29.60;46.80
29729;DHT22;20055;51.498;11.960;2022-08-11T14:19:11;29.70;46.80
29729;DHT22;20055;51.498;11.960;2022-08-11T14:21:41;29.60;47.10
29729;DHT22;20055;51.498;11.960;2022-08-11T14:24:27;29.50;47.00
29729;DHT22;20055;51.498;11.960;2022-08-11T14:26:54;29.50;47.10
29729;DHT22;20055;51.498;11.960;2022-08-11T14:29:22;29.70;46.80
29729;DHT22;20055;51.498;11.960;2022-08-11T14:31:53;29.70;46.40
29729;DHT22;20055;51.498;11.960;2022-08-11T14:34:21;29.50;46.70
29729;DHT22;20055;51.498;11.960;2022-08-11T14:36:52;29.40;46.90
29729;DHT22;20055;51.498;11.960;2022-08-11T14:39:22;29.50;47.10
29729;DHT22;20055;51.498;11.960;2022-08-11T14:41:49;29.50;46.80
29729;DHT22;20055;51.498;11.960;2022-08-11T14:44:36;29.60;46.30
29729;DHT22;20055;51.498;11.960;2022-08-11T14:47:22;29.80;46.10
29729;DHT22;20055;51.498;11.960;2022-08-11T14:49:49;29.70;45.70
29729;DHT22;20055;51.498;11.960;2022-08-11T14:52:17;29.60;46.30
29729;DHT22;20055;51.498;11.960;2022-08-11T14:54:47;29.60;45.50
29729;DHT22;20055;51.498;11.960;2022-08-11T14:57:37;29.60;45.90
29729;DHT22;20055;51.498;11.960;2022-08-11T15:00:07;29.60;46.20
29729;DHT22;20055;51.498;11.960;2022-08-11T15:02:38;29.50;46.20
29729;DHT22;20055;51.498;11.960;2022-08-11T15:05:24;29.50;46.50
29729;DHT22;20055;51.498;11.960;2022-08-11T15:07:51;29.40;46.00
29729;DHT22;20055;51.498;11.960;2022-08-11T15:10:19;29.40;46.00
29729;DHT22;20055;51.498;11.960;2022-08-11T15:12:46;29.40;46.10
29729;DHT22;20055;51.498;11.960;2022-08-11T15:15:13;29.30;45.50
29729;DHT22;20055;51.498;11.960;2022-08-11T15:18:01;29.50;44.90
29729;DHT22;20055;51.498;11.960;2022-08-11T15:20:29;29.50;45.00
29729;DHT22;20055;51.498;11.960;2022-08-11T15:23:15;29.50;45.10
29729;DHT22;20055;51.498;11.960;2022-08-11T15:26:30;29.60;45.30
29729;DHT22;20055;51.498;11.960;2022-08-11T15:29:19;29.60;46.10
29729;DHT22;20055;51.498;11.960;2022-08-11T15:32:23;29.60;46.70
29729;DHT22;20055;51.498;11.960;2022-08-11T15:35:10;29.60;46.30
29729;DHT22;20055;51.498;11.960;2022-08-11T15:37:58;29.50;46.60
29729;DHT22;20055;51.498;11.960;2022-08-11T15:40:29;29.20;47.10
29729;DHT22;20055;51.498;11.960;2022-08-11T15:43:24;29.30;46.90
29729;DHT22;20055;51.498;11.960;2022-08-11T15:46:41;29.40;46.70
29729;DHT22;20055;51.498;11.960;2022-08-11T15:49:20;29.30;47.20
29729;DHT22;20055;51.498;11.960;2022-08-11T15:51:48;29.20;46.90
29729;DHT22;20055;51.498;11.960;2022-08-11T15:54:18;29.30;46.60
29729;DHT22;20055;51.498;11.960;2022-08-11T15:56:47;29.30;46.90
29729;DHT22;20055;51.498;11.960;2022-08-11T15:59:15;29.30;46.90
29729;DHT22;20055;51.498;11.960;2022-08-11T16:02:03;29.40;46.50
29729;DHT22;20055;51.498;11.960;2022-08-11T16:04:57;29.50;45.90
29729;DHT22;20055;51.498;11.960;2022-08-11T16:07:31;29.50;46.70
29729;DHT22;20055;51.498;11.960;2022-08-11T16:10:09;29.60;46.60
29729;DHT22;20055;51.498;11.960;2022-08-11T16:12:42;29.50;46.80
29729;DHT22;20055;51.498;11.960;2022-08-11T16:15:44;29.30;47.20
29729;DHT22;20055;51.498;11.960;2022-08-11T16:18:35;29.30;47.20
29729;DHT22;20055;51.498;11.960;2022-08-11T16:21:13;29.50;46.80
29729;DHT22;20055;51.498;11.960;2022-08-11T16:23:42;29.60;46.70
29729;DHT22;20055;51.498;11.960;2022-08-11T16:26:09;30.00;46.30
29729;DHT22;20055;51.498;11.960;2022-08-11T16:28:38;30.30;45.90
29729;DHT22;20055;51.498;11.960;2022-08-11T16:31:07;30.30;46.00
29729;DHT22;20055;51.498;11.960;2022-08-11T16:33:39;30.10;45.70
29729;DHT22;20055;51.498;11.960;2022-08-11T16:36:08;30.10;45.70
29729;DHT22;20055;51.498;11.960;2022-08-11T16:38:54;30.00;45.90
29729;DHT22;20055;51.498;11.960;2022-08-11T16:41:25;30.00;45.80
29729;DHT22;20055;51.498;11.960;2022-08-11T16:44:12;29.80;46.20
29729;DHT22;20055;51.498;11.960;2022-08-11T16:46:59;30.00;45.70
29729;DHT22;20055;51.498;11.960;2022-08-11T16:49:30;29.80;46.00
29729;DHT22;20055;51.498;11.960;2022-08-11T16:51:58;29.60;46.50
29729;DHT22;20055;51.498;11.960;2022-08-11T16:54:31;29.50;46.30
29729;DHT22;20055;51.498;11.960;2022-08-11T16:57:01;29.50;46.60
29729;DHT22;20055;51.498;11.960;2022-08-11T16:59:49;29.60;46.50
29729;DHT22;20055;51.498;11.960;2022-08-11T17:02:17;29.70;46.30
29729;DHT22;20055;51.498;11.960;2022-08-11T17:05:11;29.90;45.90
29729;DHT22;20055;51.498;11.960;2022-08-11T17:08:00;29.90;45.90
29729;DHT22;20055;51.498;11.960;2022-08-11T17:10:49;29.90;45.70
29729;DHT22;20055;51.498;11.960;2022-08-11T17:13:46;29.80;45.90
29729;DHT22;20055;51.498;11.960;2022-08-11T17:16:20;29.60;45.90
29729;DHT22;20055;51.498;11.960;2022-08-11T17:18:49;29.30;46.00
29729;DHT22;20055;51.498;11.960;2022-08-11T17:24:09;29.20;46.30
29729;DHT22;20055;51.498;11.960;2022-08-11T17:26:42;29.00;46.50
29729;DHT22;20055;51.498;11.960;2022-08-11T17:29:49;28.90;47.00
29729;DHT22;20055;51.498;11.960;2022-08-11T17:32:18;28.90;47.20
29729;DHT22;20055;51.498;11.960;2022-08-11T17:35:08;28.70;47.10
29729;DHT22;20055;51.498;11.960;2022-08-11T17:37:54;28.60;47.30
29729;DHT22;20055;51.498;11.960;2022-08-11T17:40:22;28.60;47.60
29729;DHT22;20055;51.498;11.960;2022-08-11T17:42:55;28.70;47.40
29729;DHT22;20055;51.498;11.960;2022-08-11T17:45:42;28.60;47.60
29729;DHT22;20055;51.498;11.960;2022-08-11T17:48:34;28.60;47.50
29729;DHT22;20055;51.498;11.960;2022-08-11T17:51:13;28.60;47.60
29729;DHT22;20055;51.498;11.960;2022-08-11T17:54:02;28.40;47.80
29729;DHT22;20055;51.498;11.960;2022-08-11T17:56:49;28.30;48.20
29729;DHT22;20055;51.498;11.960;2022-08-11T17:59:36;28.20;48.30
29729;DHT22;20055;51.498;11.960;2022-08-11T18:02:32;28.10;48.40
29729;DHT22;20055;51.498;11.960;2022-08-11T18:05:20;27.80;48.70
29729;DHT22;20055;51.498;11.960;2022-08-11T18:07:50;27.80;49.00
29729;DHT22;20055;51.498;11.960;2022-08-11T18:10:38;27.70;49.20
29729;DHT22;20055;51.498;11.960;2022-08-11T18:13:26;27.60;49.20
29729;DHT22;20055;51.498;11.960;2022-08-11T18:16:12;27.50;49.50
29729;DHT22;20055;51.498;11.960;2022-08-11T18:18:58;27.40;49.70
29729;DHT22;20055;51.498;11.960;2022-08-11T18:21:45;27.30;50.00
29729;DHT22;20055;51.498;11.960;2022-08-11T18:24:44;27.20;50.20
29729;DHT22;20055;51.498;11.960;2022-08-11T18:27:32;27.10;50.60
29729;DHT22;20055;51.498;11.960;2022-08-11T18:30:18;27.00;50.60
29729;DHT22;20055;51.498;11.960;2022-08-11T18:33:04;26.90;50.80
29729;DHT22;20055;51.498;11.960;2022-08-11T18:35:53;26.80;51.00
29729;DHT22;20055;51.498;11.960;2022-08-11T18:38:45;26.70;51.20
29729;DHT22;20055;51.498;11.960;2022-08-11T18:41:35;26.60;51.50
29729;DHT22;20055;51.498;11.960;2022-08-11T18:44:24;26.50;51.80
29729;DHT22;20055;51.498;11.960;2022-08-11T18:47:13;26.50;52.00
29729;DHT22;20055;51.498;11.960;2022-08-11T18:49:59;26.30;52.10
29729;DHT22;20055;51.498;11.960;2022-08-11T18:52:49;26.30;52.40
29729;DHT22;20055;51.498;11.960;2022-08-11T18:55:35;26.20;52.50
29729;DHT22;20055;51.498;11.960;2022-08-11T18:58:27;26.10;52.70
29729;DHT22;20055;51.498;11.960;2022-08-11T19:01:15;26.00;52.90
29729;DHT22;20055;51.498;11.960;2022-08-11T19:04:04;25.90;53.10
29729;DHT22;20055;51.498;11.960;2022-08-11T19:06:54;25.80;53.40
29729;DHT22;20055;51.498;11.960;2022-08-11T19:09:44;25.80;53.50
29729;DHT22;20055;51.498;11.960;2022-08-11T19:12:35;25.70;53.80
29729;DHT22;20055;51.498;11.960;2022-08-11T19:15:21;25.60;53.80
29729;DHT22;20055;51.498;11.960;2022-08-11T19:18:11;25.50;54.10
29729;DHT22;20055;51.498;11.960;2022-08-11T19:20:57;25.50;54.30
29729;DHT22;20055;51.498;11.960;2022-08-11T19:23:46;25.40;54.30
29729;DHT22;20055;51.498;11.960;2022-08-11T19:26:34;25.30;54.60
29729;DHT22;20055;51.498;11.960;2022-08-11T19:29:21;25.30;54.70
29729;DHT22;20055;51.498;11.960;2022-08-11T19:32:06;25.20;55.00
29729;DHT22;20055;51.498;11.960;2022-08-11T19:34:53;25.10;55.10
29729;DHT22;20055;51.498;11.960;2022-08-11T19:37:39;25.00;55.30
29729;DHT22;20055;51.498;11.960;2022-08-11T19:40:25;25.00;55.40
29729;DHT22;20055;51.498;11.960;2022-08-11T19:43:12;24.90;55.70